This is the latest recevied weather packets stored in our database for station/object N5UKZ-WX. If no packets are shown the sender has not sent any weather packets the latest 10 day(s).
| Time | Temp. | Humidity | Pressure | Rain* | Wind** | Luminosity | Snow |
|---|---|---|---|---|---|---|---|
| 1777848705 | 27.22° C | 43% | 1018 hPa | 0 mm | - | - | - |
| 1777847805 | 27.22° C | 42% | 1018 hPa | 0 mm | - | - | - |
| 1777846905 | 27.22° C | 44% | 1018 hPa | 0 mm | - | - | - |
| 1777846004 | 27.22° C | 46% | 1018 hPa | 0 mm | - | - | - |
| 1777845104 | 25.56° C | 48% | 1018 hPa | 0 mm | - | - | - |
| 1777844204 | 23.89° C | 52% | 1018.3 hPa | 0 mm | - | - | - |
| 1777843304 | 25° C | 53% | 1018.7 hPa | 0 mm | - | - | - |
| 1777842404 | 24.44° C | 53% | 1019 hPa | 0 mm | - | - | - |
| 1777841503 | 25° C | 53% | 1019 hPa | 0 mm | - | - | - |
| 1777840603 | 24.44° C | 54% | 1019.3 hPa | 0 mm | - | - | - |
| 1777839703 | 24.44° C | 54% | 1019.7 hPa | 0 mm | - | - | - |
| 1777838803 | 24.44° C | 56% | 1020 hPa | 0 mm | - | - | - |
| 1777837903 | 24.44° C | 56% | 1020.4 hPa | 0 mm | - | - | - |
| 1777837003 | 23.89° C | 55% | 1020.7 hPa | 0 mm | - | - | - |
| 1777836102 | 23.89° C | 55% | 1021 hPa | 0 mm | - | - | - |
| 1777835202 | 23.33° C | 57% | 1021 hPa | 0 mm | - | - | - |
| 1777834302 | 23.33° C | 58% | 1021.4 hPa | 0 mm | - | - | - |
| 1777833402 | 23.33° C | 60% | 1021.4 hPa | 0 mm | - | - | - |
| 1777832502 | 22.22° C | 65% | 1021.7 hPa | 0 mm | - | - | - |
| 1777831601 | 22.22° C | 64% | 1021.7 hPa | 0 mm | - | - | - |
| 1777830701 | 21.67° C | 67% | 1022.1 hPa | 0 mm | - | - | - |
| 1777829801 | 21.67° C | 67% | 1022.4 hPa | 0 mm | - | - | - |
| 1777828901 | 21.11° C | 69% | 1022.4 hPa | 0 mm | - | - | - |
| 1777828001 | 21.67° C | 69% | 1022.4 hPa | 0 mm | - | - | - |
| 1777827101 | 20.56° C | 71% | 1022.4 hPa | 0 mm | - | - | - |
* Rain latest hour (hover to see other rain measurements)
** Current wind speed in m/s (hover to see current wind gust speed)